createdAt,value
2024-01-21T00:00:23.922Z,27.02
2024-01-21T00:02:51.260Z,24.77
2024-01-21T00:05:18.553Z,24.33
2024-01-21T00:07:45.823Z,22.00
2024-01-21T00:10:13.065Z,17.98
2024-01-21T00:12:40.535Z,21.77
2024-01-21T00:15:08.586Z,23.63
2024-01-21T00:17:35.970Z,22.05
2024-01-21T00:20:03.407Z,19.80
2024-01-21T00:22:30.639Z,26.25
2024-01-21T00:24:57.958Z,21.88
2024-01-21T00:27:25.392Z,15.73
2024-01-21T00:29:52.783Z,21.60
2024-01-21T00:32:20.146Z,17.45
2024-01-21T00:34:47.491Z,22.45
2024-01-21T00:37:14.814Z,24.23
2024-01-21T00:39:42.042Z,26.90
2024-01-21T00:42:09.472Z,27.10
2024-01-21T00:44:38.497Z,22.83
2024-01-21T00:47:06.039Z,27.48
2024-01-21T00:49:34.639Z,29.20
2024-01-21T00:52:02.251Z,23.65
2024-01-21T00:54:29.737Z,30.25
2024-01-21T00:56:56.919Z,21.08
2024-01-21T00:59:24.261Z,22.63
2024-01-21T01:01:51.521Z,22.83
2024-01-21T01:04:19.042Z,21.83
2024-01-21T01:06:46.466Z,23.05
2024-01-21T01:09:14.347Z,24.73
2024-01-21T01:11:41.548Z,20.95
2024-01-21T01:14:08.916Z,20.08
2024-01-21T01:16:42.390Z,18.17
2024-01-21T01:21:37.234Z,21.77
2024-01-21T01:24:05.100Z,22.02
2024-01-21T01:26:32.366Z,25.48
2024-01-21T01:28:59.849Z,24.20
2024-01-21T01:31:27.209Z,16.48
2024-01-21T01:33:54.662Z,22.60
2024-01-21T01:36:22.311Z,26.05
2024-01-21T01:38:49.664Z,25.33
2024-01-21T01:41:19.580Z,20.95
2024-01-21T01:43:46.885Z,29.65
2024-01-21T01:46:15.008Z,25.25
2024-01-21T01:48:42.987Z,24.35
2024-01-21T01:51:10.968Z,20.48
2024-01-21T01:53:39.125Z,26.15
2024-01-21T01:56:07.462Z,22.05
2024-01-21T01:58:36.662Z,24.83
2024-01-21T02:01:04.005Z,18.75
2024-01-21T02:03:32.031Z,17.23
2024-01-21T02:05:59.361Z,22.23
2024-01-21T02:08:26.693Z,19.35
2024-01-21T02:10:54.015Z,22.08
2024-01-21T02:13:21.655Z,17.20
2024-01-21T02:15:48.950Z,20.90
2024-01-21T02:18:16.625Z,17.65
2024-01-21T02:20:43.853Z,15.90
2024-01-21T02:23:12.123Z,16.20
2024-01-21T02:25:39.394Z,18.38
2024-01-21T02:28:06.912Z,21.17
2024-01-21T02:30:38.103Z,22.52
2024-01-21T02:33:05.908Z,11.23
2024-01-21T02:35:34.320Z,16.30
2024-01-21T02:38:01.692Z,13.00
2024-01-21T02:40:29.122Z,23.15
2024-01-21T02:42:56.529Z,12.20
2024-01-21T02:45:23.972Z,19.13
2024-01-21T02:47:51.277Z,13.95
2024-01-21T02:50:18.628Z,21.20
2024-01-21T02:52:45.930Z,12.38
2024-01-21T02:55:13.274Z,12.32
2024-01-21T02:57:40.552Z,12.93
2024-01-21T03:00:09.152Z,13.93
2024-01-21T03:02:36.897Z,15.23
2024-01-21T03:05:04.273Z,11.55
2024-01-21T03:07:31.751Z,8.77
2024-01-21T03:09:59.148Z,10.63
2024-01-21T03:12:26.569Z,14.38
2024-01-21T03:14:53.872Z,8.95
2024-01-21T03:17:21.143Z,17.38
2024-01-21T03:19:48.434Z,13.75
2024-01-21T03:22:15.756Z,16.77
2024-01-21T03:24:43.230Z,23.27
2024-01-21T03:27:10.719Z,13.70
2024-01-21T03:29:38.013Z,14.38
2024-01-21T03:32:05.704Z,20.73
2024-01-21T03:34:33.342Z,22.88
2024-01-21T03:37:00.708Z,15.18
2024-01-21T03:39:28.060Z,19.75
2024-01-21T03:41:55.458Z,25.80
2024-01-21T03:44:22.691Z,22.10
2024-01-21T03:46:49.979Z,20.02
2024-01-21T03:49:17.224Z,17.13
2024-01-21T03:51:44.606Z,20.33
2024-01-21T03:54:11.893Z,16.20
2024-01-21T03:56:39.196Z,27.15
2024-01-21T03:59:06.404Z,11.23
2024-01-21T04:01:33.845Z,19.83
2024-01-21T04:04:01.240Z,19.63
2024-01-21T04:06:28.593Z,19.25
2024-01-21T04:08:55.907Z,12.57
2024-01-21T04:11:23.165Z,14.68
2024-01-21T04:13:50.919Z,11.10
2024-01-21T04:16:18.138Z,12.45
2024-01-21T04:18:45.534Z,11.32
2024-01-21T04:21:13.291Z,7.35
2024-01-21T04:23:40.774Z,6.07
2024-01-21T04:26:08.527Z,13.98
2024-01-21T04:28:38.332Z,12.35
2024-01-21T04:31:05.671Z,10.18
2024-01-21T04:33:33.189Z,12.15
2024-01-21T04:36:00.585Z,11.63
2024-01-21T04:38:27.819Z,13.15
2024-01-21T04:40:55.271Z,8.77
2024-01-21T04:43:22.600Z,13.73
2024-01-21T04:45:50.044Z,12.05
2024-01-21T04:48:17.382Z,9.75
2024-01-21T04:50:45.231Z,11.60
2024-01-21T04:53:12.559Z,8.38
2024-01-21T04:55:39.877Z,10.93
2024-01-21T04:58:07.134Z,9.00
2024-01-21T05:00:34.537Z,11.55
2024-01-21T05:03:01.772Z,8.65
2024-01-21T05:05:29.055Z,12.98
2024-01-21T05:07:56.233Z,11.57
2024-01-21T05:10:24.118Z,9.63
2024-01-21T05:12:51.628Z,10.15
2024-01-21T05:15:19.118Z,10.10
2024-01-21T05:17:46.633Z,10.82
2024-01-21T05:20:14.004Z,11.30
2024-01-21T05:22:41.297Z,9.40
2024-01-21T05:25:08.650Z,6.18
2024-01-21T05:27:36.180Z,14.48
2024-01-21T05:30:05.034Z,18.25
2024-01-21T05:32:32.772Z,9.68
2024-01-21T05:35:00.392Z,7.50
2024-01-21T05:37:27.647Z,12.60
2024-01-21T05:39:55.041Z,12.15
2024-01-21T05:42:22.304Z,7.38
2024-01-21T05:44:49.711Z,9.10
2024-01-21T05:47:16.886Z,13.57
2024-01-21T05:49:44.604Z,10.98
2024-01-21T05:52:12.305Z,7.80
2024-01-21T05:54:40.471Z,8.77
2024-01-21T05:57:07.905Z,10.38
2024-01-21T05:59:35.120Z,12.93
2024-01-21T06:02:02.634Z,12.85
2024-01-21T06:04:29.913Z,16.40
2024-01-21T06:06:57.441Z,10.02
2024-01-21T06:09:25.101Z,6.45
2024-01-21T06:11:52.515Z,7.80
2024-01-21T06:14:19.752Z,5.88
2024-01-21T06:16:47.063Z,6.63
2024-01-21T06:19:14.518Z,8.00
2024-01-21T06:21:45.458Z,10.50
2024-01-21T06:24:15.919Z,8.98
2024-01-21T06:26:43.410Z,7.03
2024-01-21T06:29:10.756Z,13.38
2024-01-21T06:31:38.135Z,7.57
2024-01-21T06:34:05.904Z,9.52
2024-01-21T06:36:33.278Z,9.25
2024-01-21T06:39:00.767Z,11.10
2024-01-21T06:41:28.054Z,9.63
2024-01-21T06:44:07.893Z,12.18
2024-01-21T06:46:35.553Z,9.77
2024-01-21T06:49:03.040Z,16.02
2024-01-21T06:51:35.847Z,7.35
2024-01-21T06:54:04.668Z,9.05
2024-01-21T06:56:32.104Z,11.90
2024-01-21T06:58:59.564Z,13.18
2024-01-21T07:01:26.940Z,8.48
2024-01-21T07:03:54.498Z,12.18
2024-01-21T07:06:21.945Z,10.75
2024-01-21T07:08:49.439Z,12.23
2024-01-21T07:11:16.667Z,11.15
2024-01-21T07:13:44.067Z,9.80
2024-01-21T07:16:11.310Z,10.18
2024-01-21T07:18:38.663Z,9.50
2024-01-21T07:21:05.886Z,8.38
2024-01-21T07:23:33.202Z,9.00
2024-01-21T07:26:01.205Z,10.00
2024-01-21T07:28:29.183Z,7.32
2024-01-21T07:30:56.658Z,11.10
2024-01-21T07:33:24.281Z,7.32
2024-01-21T07:35:51.672Z,11.93
2024-01-21T07:38:19.149Z,12.23
2024-01-21T07:40:46.773Z,10.68
2024-01-21T07:43:14.327Z,10.55
2024-01-21T07:45:41.833Z,10.35
2024-01-21T07:48:09.899Z,9.88
2024-01-21T07:50:37.353Z,11.82
2024-01-21T07:53:05.020Z,7.18
2024-01-21T07:55:32.405Z,14.75
2024-01-21T07:57:59.793Z,12.40
2024-01-21T08:00:27.218Z,10.60
2024-01-21T08:02:54.583Z,12.07
2024-01-21T08:05:22.535Z,9.10
2024-01-21T08:07:49.874Z,10.88
2024-01-21T08:10:17.157Z,8.77
2024-01-21T08:12:44.695Z,8.82
2024-01-21T08:15:11.995Z,6.97
2024-01-21T08:17:39.450Z,12.32
2024-01-21T08:20:07.724Z,6.80
2024-01-21T08:23:33.096Z,11.10
2024-01-21T08:26:00.394Z,9.73
2024-01-21T08:28:27.647Z,5.90
2024-01-21T08:30:55.189Z,10.07
2024-01-21T08:33:22.711Z,10.63
2024-01-21T08:35:49.954Z,7.65
2024-01-21T08:38:17.232Z,9.02
2024-01-21T08:40:44.387Z,6.35
2024-01-21T08:43:11.668Z,7.93
2024-01-21T08:45:39.100Z,10.13
2024-01-21T08:48:07.012Z,6.40
2024-01-21T08:50:34.288Z,9.43
2024-01-21T08:53:01.461Z,6.88
2024-01-21T08:55:28.697Z,7.45
2024-01-21T08:57:55.935Z,7.25
2024-01-21T09:00:23.537Z,9.63
2024-01-21T09:02:51.235Z,10.60
2024-01-21T09:05:18.602Z,6.90
2024-01-21T09:07:45.832Z,6.30
2024-01-21T09:10:14.257Z,11.93
2024-01-21T09:12:41.630Z,8.20
2024-01-21T09:15:10.203Z,7.93
2024-01-21T09:17:37.466Z,6.70
2024-01-21T09:20:05.714Z,8.02
2024-01-21T09:22:33.195Z,9.10
2024-01-21T09:25:01.262Z,12.98
2024-01-21T09:27:29.907Z,6.63
2024-01-21T09:29:57.102Z,6.05
2024-01-21T09:32:25.535Z,5.55
2024-01-21T09:34:52.818Z,7.43
2024-01-21T09:37:23.603Z,8.00
2024-01-21T09:39:52.086Z,9.40
2024-01-21T09:42:20.148Z,5.95
2024-01-21T09:44:48.113Z,5.25
2024-01-21T09:47:16.450Z,7.10
2024-01-21T09:49:45.011Z,9.82
2024-01-21T09:52:13.864Z,10.93
2024-01-21T09:54:41.325Z,6.88
2024-01-21T09:57:11.344Z,7.50
2024-01-21T09:59:38.755Z,7.90
2024-01-21T10:02:10.347Z,11.07
2024-01-21T10:04:37.985Z,6.80
2024-01-21T10:07:05.460Z,12.57
2024-01-21T10:09:34.353Z,10.98
2024-01-21T10:12:03.435Z,11.43
2024-01-21T10:14:33.035Z,12.15
2024-01-21T10:17:02.011Z,7.15
2024-01-21T10:19:30.635Z,7.25
2024-01-21T10:22:17.668Z,10.38
2024-01-21T10:24:47.620Z,9.30
2024-01-21T10:27:17.165Z,8.68
2024-01-21T10:29:47.933Z,12.60
2024-01-21T10:32:16.991Z,6.22
2024-01-21T10:34:51.875Z,9.20
2024-01-21T10:37:19.552Z,13.35
2024-01-21T10:39:48.856Z,9.30
2024-01-21T10:42:17.131Z,5.47
2024-01-21T10:44:45.436Z,10.60
2024-01-21T10:47:14.267Z,9.82
2024-01-21T10:49:42.973Z,6.22
2024-01-21T10:52:11.732Z,10.85
2024-01-21T10:54:39.689Z,8.05
2024-01-21T10:57:08.052Z,7.72
2024-01-21T10:59:40.430Z,8.95
2024-01-21T11:02:12.017Z,7.53
2024-01-21T11:04:39.860Z,9.25
2024-01-21T11:07:07.911Z,8.10
2024-01-21T11:09:38.451Z,4.70
2024-01-21T11:12:06.511Z,6.63
2024-01-21T11:14:42.257Z,4.38
2024-01-21T11:17:16.741Z,6.80
2024-01-21T11:19:56.488Z,9.65
2024-01-21T11:22:27.261Z,7.38
2024-01-21T11:24:56.768Z,5.22
2024-01-21T11:27:26.489Z,6.65
2024-01-21T11:29:58.494Z,8.38
2024-01-21T11:32:30.667Z,7.25
2024-01-21T11:35:15.354Z,9.93
2024-01-21T11:37:46.557Z,7.50
2024-01-21T11:40:14.135Z,8.27
2024-01-21T11:42:43.052Z,5.20
2024-01-21T11:45:11.306Z,6.82
2024-01-21T11:47:39.376Z,5.63
2024-01-21T11:50:07.185Z,7.07
2024-01-21T11:52:38.029Z,10.02
2024-01-21T11:55:06.630Z,10.30
2024-01-21T11:57:34.292Z,7.78
2024-01-21T12:00:01.870Z,6.72
2024-01-21T12:02:39.876Z,7.55
2024-01-21T12:05:07.614Z,5.55
2024-01-21T12:07:35.218Z,9.18
2024-01-21T12:10:03.132Z,7.25
2024-01-21T12:12:31.165Z,4.35
2024-01-21T12:15:03.103Z,7.22
2024-01-21T12:17:30.998Z,4.75
2024-01-21T12:19:59.093Z,12.50
2024-01-21T12:22:40.974Z,5.82
2024-01-21T12:25:09.925Z,5.20
2024-01-21T12:27:37.836Z,8.02
2024-01-21T12:30:12.969Z,5.30
2024-01-21T12:32:53.009Z,5.05
2024-01-21T12:35:24.135Z,8.65
2024-01-21T12:37:51.891Z,6.97
2024-01-21T12:40:19.689Z,6.22
2024-01-21T12:42:47.838Z,5.45
2024-01-21T12:45:15.394Z,4.90
2024-01-21T12:47:43.028Z,5.45
2024-01-21T12:50:11.126Z,8.38
2024-01-21T12:52:39.010Z,5.55
2024-01-21T12:55:08.162Z,5.15
2024-01-21T12:57:35.571Z,4.07
2024-01-21T13:00:04.982Z,4.93
2024-01-21T13:02:32.391Z,6.32
2024-01-21T13:04:59.691Z,6.47
2024-01-21T13:07:29.200Z,4.55
2024-01-21T13:09:57.509Z,4.95
2024-01-21T13:12:25.030Z,5.15
2024-01-21T13:14:52.351Z,4.05
2024-01-21T13:17:19.831Z,5.35
2024-01-21T13:19:47.394Z,3.92
2024-01-21T13:22:14.731Z,5.72
2024-01-21T13:24:42.096Z,7.07
2024-01-21T13:27:12.913Z,4.40
2024-01-21T13:29:58.908Z,3.83
2024-01-21T13:32:26.150Z,6.35
2024-01-21T13:34:53.860Z,5.22
2024-01-21T13:37:26.988Z,5.32
2024-01-21T13:39:54.919Z,7.35
2024-01-21T13:42:22.276Z,9.82
2024-01-21T13:44:49.685Z,5.63
2024-01-21T13:47:17.286Z,3.67
2024-01-21T13:49:44.908Z,6.95
2024-01-21T13:52:16.227Z,6.07
2024-01-21T13:54:44.245Z,7.68
2024-01-21T13:57:11.756Z,5.18
2024-01-21T13:59:39.150Z,6.25
2024-01-21T14:02:13.740Z,3.47
2024-01-21T14:04:44.236Z,6.07
2024-01-21T14:07:11.738Z,4.18
2024-01-21T14:09:40.099Z,4.20
2024-01-21T14:12:08.342Z,6.65
2024-01-21T14:14:36.821Z,8.30
2024-01-21T14:17:04.669Z,7.97
2024-01-21T14:19:32.095Z,7.07
2024-01-21T14:22:00.831Z,9.18
2024-01-21T14:24:29.050Z,7.22
2024-01-21T14:26:56.862Z,6.20
2024-01-21T14:29:46.691Z,7.45
2024-01-21T14:32:14.092Z,7.35
2024-01-21T14:34:41.623Z,5.18
2024-01-21T14:37:09.005Z,11.07
2024-01-21T14:39:37.441Z,5.45
2024-01-21T14:42:05.440Z,6.05
2024-01-21T14:44:33.720Z,5.38
2024-01-21T14:47:01.897Z,7.65
2024-01-21T14:49:31.609Z,5.47
2024-01-21T14:52:03.597Z,5.45
2024-01-21T14:54:32.314Z,6.35
2024-01-21T14:57:00.263Z,6.45
2024-01-21T14:59:27.955Z,7.50
2024-01-21T15:01:55.454Z,6.63
2024-01-21T15:04:22.808Z,5.95
2024-01-21T15:06:50.176Z,7.65
2024-01-21T15:09:18.005Z,4.65
2024-01-21T15:11:45.407Z,5.82
2024-01-21T15:14:23.200Z,9.35
2024-01-21T15:16:50.508Z,9.43
2024-01-21T15:19:17.932Z,4.97
2024-01-21T15:21:47.482Z,4.85
2024-01-21T15:24:14.840Z,6.47
2024-01-21T15:26:42.118Z,6.30
2024-01-21T15:29:09.608Z,5.70
2024-01-21T15:31:37.010Z,5.53
2024-01-21T15:34:07.161Z,7.78
2024-01-21T15:36:34.733Z,7.45
2024-01-21T15:39:01.929Z,6.22
2024-01-21T15:41:29.212Z,5.50
2024-01-21T15:43:56.613Z,9.43
2024-01-21T15:46:23.822Z,10.15
2024-01-21T15:48:51.076Z,7.05
2024-01-21T15:51:20.497Z,9.77
2024-01-21T15:53:50.350Z,9.82
2024-01-21T15:56:19.509Z,8.15
2024-01-21T15:58:46.889Z,8.18
2024-01-21T16:01:14.174Z,7.90
2024-01-21T16:03:42.345Z,8.52
2024-01-21T16:06:09.605Z,7.57
2024-01-21T16:08:39.935Z,7.82
2024-01-21T16:11:07.452Z,3.88
2024-01-21T16:13:37.163Z,8.77
2024-01-21T16:18:34.206Z,5.53
2024-01-21T16:21:02.244Z,6.15
2024-01-21T16:23:30.515Z,11.20
2024-01-21T16:25:57.922Z,7.72
2024-01-21T16:28:25.382Z,9.27
2024-01-21T16:30:53.167Z,6.80
2024-01-21T16:33:24.144Z,8.43
2024-01-21T16:35:52.303Z,6.70
2024-01-21T16:38:19.785Z,8.02
2024-01-21T16:40:48.352Z,7.60
2024-01-21T16:43:15.642Z,6.78
2024-01-21T16:45:43.028Z,16.83
2024-01-21T16:48:10.327Z,53.08
2024-01-21T16:50:37.620Z,41.05
2024-01-21T16:53:14.338Z,76.95
2024-01-21T16:55:44.043Z,48.92
2024-01-21T16:58:11.391Z,13.75
2024-01-21T17:00:45.043Z,8.40
2024-01-21T17:03:15.693Z,6.85
2024-01-21T17:05:43.070Z,9.10
2024-01-21T17:08:10.578Z,10.13
2024-01-21T17:11:10.799Z,6.80
2024-01-21T17:13:38.655Z,6.38
2024-01-21T17:16:06.072Z,9.30
2024-01-21T17:18:49.345Z,8.18
2024-01-21T17:21:16.830Z,7.30
2024-01-21T17:23:44.266Z,7.72
2024-01-21T17:26:13.538Z,8.98
2024-01-21T17:28:40.920Z,7.18
2024-01-21T17:31:08.384Z,4.85
2024-01-21T17:33:35.820Z,6.72
2024-01-21T17:36:03.506Z,5.65
2024-01-21T17:38:30.853Z,5.25
2024-01-21T17:40:58.917Z,5.40
2024-01-21T17:43:26.217Z,8.13
2024-01-21T17:45:53.614Z,8.45
2024-01-21T17:48:21.316Z,7.00
2024-01-21T17:50:49.857Z,4.80
2024-01-21T17:53:17.974Z,6.72
2024-01-21T17:55:46.418Z,7.65
2024-01-21T17:58:13.957Z,7.88
2024-01-21T18:00:41.547Z,4.57
2024-01-21T18:03:08.870Z,6.65
2024-01-21T18:05:39.434Z,7.95
2024-01-21T18:08:10.786Z,5.13
2024-01-21T18:10:45.452Z,6.35
2024-01-21T18:13:12.944Z,7.30
2024-01-21T18:15:42.809Z,4.75
2024-01-21T18:18:10.159Z,6.00
2024-01-21T18:20:38.531Z,5.35
2024-01-21T18:23:06.108Z,5.72
2024-01-21T18:25:34.585Z,5.63
2024-01-21T18:28:02.159Z,10.15
2024-01-21T18:30:30.901Z,7.88
2024-01-21T18:32:58.282Z,8.20
2024-01-21T18:35:25.762Z,10.27
2024-01-21T18:37:53.113Z,10.75
2024-01-21T18:40:23.511Z,9.88
2024-01-21T18:42:51.950Z,8.77
2024-01-21T18:45:19.444Z,7.80
2024-01-21T18:47:49.138Z,10.45
2024-01-21T18:50:18.012Z,8.88
2024-01-21T18:52:45.598Z,11.95
2024-01-21T18:55:14.913Z,10.45
2024-01-21T18:57:42.393Z,14.02
2024-01-21T19:00:10.202Z,10.45
2024-01-21T19:02:37.586Z,12.88
2024-01-21T19:05:05.324Z,9.27
2024-01-21T19:07:36.061Z,14.65
2024-01-21T19:10:10.107Z,7.85
2024-01-21T19:12:37.474Z,8.57
2024-01-21T19:15:05.443Z,12.85
2024-01-21T19:17:32.869Z,8.02
2024-01-21T19:20:01.592Z,10.73
2024-01-21T19:22:29.034Z,7.35
2024-01-21T19:24:56.373Z,7.82
2024-01-21T19:27:24.044Z,9.95
2024-01-21T19:29:51.502Z,9.98
2024-01-21T19:32:19.126Z,11.32
2024-01-21T19:34:46.672Z,10.18
2024-01-21T19:37:14.127Z,12.85
2024-01-21T19:39:41.447Z,11.57
2024-01-21T19:42:08.930Z,12.55
2024-01-21T19:44:43.428Z,11.45
2024-01-21T19:47:13.114Z,12.55
2024-01-21T19:49:41.103Z,16.80
2024-01-21T19:52:08.671Z,12.80
2024-01-21T19:54:37.676Z,11.43
2024-01-21T19:57:05.646Z,13.45
2024-01-21T19:59:33.253Z,16.63
2024-01-21T20:02:00.485Z,11.45
2024-01-21T20:04:28.021Z,12.13
2024-01-21T20:06:55.448Z,11.27
2024-01-21T20:09:22.983Z,15.55
2024-01-21T20:11:50.475Z,18.73
2024-01-21T20:14:18.188Z,15.07
2024-01-21T20:16:45.544Z,13.98
2024-01-21T20:19:12.805Z,13.98
2024-01-21T20:21:40.199Z,13.57
2024-01-21T20:24:08.335Z,12.38
2024-01-21T20:26:35.963Z,16.08
2024-01-21T20:29:03.296Z,15.70
2024-01-21T20:31:30.582Z,17.77
2024-01-21T20:33:58.052Z,14.45
2024-01-21T20:36:25.495Z,14.77
2024-01-21T20:38:52.753Z,16.33
2024-01-21T20:41:20.339Z,18.02
2024-01-21T20:43:48.598Z,12.63
2024-01-21T20:46:16.149Z,13.40
2024-01-21T20:48:44.354Z,12.63
2024-01-21T20:51:12.750Z,11.50
2024-01-21T20:53:40.271Z,11.40
2024-01-21T20:56:08.092Z,13.18
2024-01-21T20:58:35.918Z,12.88
2024-01-21T21:01:10.189Z,12.38
2024-01-21T21:03:41.640Z,11.25
2024-01-21T21:06:09.449Z,14.07
2024-01-21T21:08:39.003Z,12.85
2024-01-21T21:11:06.312Z,14.32
2024-01-21T21:13:33.516Z,12.65
2024-01-21T21:16:00.863Z,12.48
2024-01-21T21:18:28.284Z,15.10
2024-01-21T21:20:56.057Z,16.48
2024-01-21T21:23:25.231Z,12.32
2024-01-21T21:25:53.210Z,16.23
2024-01-21T21:28:20.777Z,13.13
2024-01-21T21:30:49.446Z,17.00
2024-01-21T21:33:17.223Z,15.95
2024-01-21T21:35:45.873Z,16.33
2024-01-21T21:38:14.792Z,15.55
2024-01-21T21:40:42.741Z,13.60
2024-01-21T21:43:09.886Z,14.38
2024-01-21T21:45:37.350Z,15.65
2024-01-21T21:48:05.531Z,15.10
2024-01-21T21:50:33.013Z,15.30
2024-01-21T21:53:00.380Z,14.50
2024-01-21T21:55:30.002Z,15.25
2024-01-21T21:57:57.951Z,21.52
2024-01-21T22:00:26.665Z,22.80
2024-01-21T22:02:54.691Z,15.98
2024-01-21T22:05:22.442Z,16.50
2024-01-21T22:07:49.893Z,18.85
2024-01-21T22:10:17.491Z,16.30
2024-01-21T22:12:45.127Z,19.17
2024-01-21T22:15:13.611Z,11.82
2024-01-21T22:17:41.117Z,13.50
2024-01-21T22:20:09.093Z,12.77
2024-01-21T22:22:37.316Z,14.35
2024-01-21T22:25:05.581Z,12.65
2024-01-21T22:27:33.533Z,10.48
2024-01-21T22:30:02.259Z,9.77
2024-01-21T22:32:29.565Z,11.30
2024-01-21T22:34:56.930Z,10.77
2024-01-21T22:37:24.173Z,10.82
2024-01-21T22:39:51.467Z,12.35
2024-01-21T22:42:18.652Z,11.30
2024-01-21T22:44:46.350Z,11.05
2024-01-21T22:47:13.629Z,9.68
2024-01-21T22:49:41.108Z,9.00
2024-01-21T22:52:08.484Z,10.35
2024-01-21T22:54:35.703Z,9.80
2024-01-21T22:57:03.122Z,13.98
2024-01-21T22:59:30.554Z,14.55
2024-01-21T23:01:58.363Z,9.63
2024-01-21T23:04:26.952Z,9.95
2024-01-21T23:06:55.391Z,10.75
2024-01-21T23:09:23.367Z,9.82
2024-01-21T23:11:52.077Z,10.68
2024-01-21T23:14:19.547Z,8.50
2024-01-21T23:16:47.139Z,13.18
2024-01-21T23:19:14.374Z,11.68
2024-01-21T23:21:41.714Z,8.98
2024-01-21T23:24:09.415Z,11.93
2024-01-21T23:26:36.912Z,9.18
2024-01-21T23:29:04.892Z,11.00
2024-01-21T23:31:32.424Z,11.38
2024-01-21T23:33:59.722Z,11.85
2024-01-21T23:36:27.194Z,10.07
2024-01-21T23:38:55.555Z,9.35
2024-01-21T23:41:22.902Z,10.50
2024-01-21T23:43:51.021Z,12.00
2024-01-21T23:46:19.595Z,9.57
2024-01-21T23:48:47.140Z,9.85
2024-01-21T23:51:15.379Z,7.88
2024-01-21T23:53:42.905Z,9.18
2024-01-21T23:56:10.340Z,9.82
2024-01-21T23:58:37.533Z,10.82
